Time;durP1;ratioP1;P1;durP2;ratioP2;P2;SDS_P1;SDS_P2;PMS_P1;PMS_P2;Temp;Humidity;BMP_temperature;BMP_pressure;BME280_temperature;BME280_humidity;BME280_pressure;Samples;Min_cycle;Max_cycle;Signal;HPM_P1;HPM_P2
2024/04/05 00:01:51;;;;;;;84.25;78.07;;;;;;;10.13;100.00;99701.75;1776995;80;25441;-63
2024/04/05 00:04:17;;;;;;;81.22;75.28;;;;;;;10.12;100.00;99697.48;1777009;80;25568;-63
2024/04/05 00:06:43;;;;;;;82.75;76.92;;;;;;;10.13;100.00;99705.80;1776987;80;27537;-63
2024/04/05 00:09:10;;;;;;;79.60;74.07;;;;;;;10.13;100.00;99708.50;1777119;80;25571;-63
2024/04/05 00:11:36;;;;;;;81.15;75.12;;;;;;;10.12;100.00;99705.02;1777110;80;27887;-63
2024/04/05 00:14:02;;;;;;;82.33;76.30;;;;;;;10.13;100.00;99705.80;1776947;80;25607;-63
2024/04/05 00:16:29;;;;;;;81.45;75.57;;;;;;;10.12;100.00;99699.61;1777001;80;25457;-64
2024/04/05 00:18:57;;;;;;;84.90;78.65;;;;;;;10.12;100.00;99692.07;1777076;80;25615;-63
2024/04/05 00:21:24;;;;;;;80.65;74.70;;;;;;;10.10;100.00;99693.17;1777057;80;25442;-63
2024/04/05 00:23:50;;;;;;;83.62;77.53;;;;;;;10.09;100.00;99698.33;1777120;80;27308;-64
2024/04/05 00:26:16;;;;;;;80.55;74.17;;;;;;;10.10;100.00;99695.09;1776994;80;25642;-64
2024/04/05 00:28:43;;;;;;;80.10;74.30;;;;;;;10.10;100.00;99697.79;1777052;80;25605;-64
2024/04/05 00:31:10;;;;;;;81.72;75.95;;;;;;;10.12;100.00;99701.53;1777109;80;25623;-64
2024/04/05 00:33:38;;;;;;;76.90;71.62;;;;;;;10.12;100.00;99704.23;1777230;80;25408;-62
2024/04/05 00:36:06;;;;;;;80.95;74.77;;;;;;;10.11;100.00;99704.77;1777215;80;27959;-63
2024/04/05 00:38:32;;;;;;;78.78;72.95;;;;;;;10.11;100.00;99703.41;1777139;80;25636;-64
2024/04/05 00:40:59;;;;;;;83.30;77.70;;;;;;;10.12;100.00;99705.58;1777151;80;25655;-64
2024/04/05 00:43:27;;;;;;;72.40;67.15;;;;;;;10.13;100.00;99713.91;1777142;80;25385;-62
2024/04/05 00:45:55;;;;;;;14.40;11.53;;;;;;;10.18;100.00;99725.91;1777217;80;25450;-63
2024/04/05 00:48:24;;;;;;;17.33;12.87;;;;;;;10.21;100.00;99730.67;1777476;80;27034;-64
2024/04/05 00:50:53;;;;;;;17.57;13.48;;;;;;;10.19;100.00;99722.88;1777156;80;25405;-63
2024/04/05 00:53:26;;;;;;;15.03;11.57;;;;;;;10.19;100.00;99726.94;1777363;80;25450;-64
2024/04/05 00:55:54;;;;;;;15.58;11.40;;;;;;;10.20;100.00;99731.78;1777192;80;25381;-64
2024/04/05 00:58:22;;;;;;;15.20;12.28;;;;;;;10.19;100.00;99732.34;1777204;80;25500;-64
2024/04/05 01:00:49;;;;;;;13.05;11.50;;;;;;;10.20;100.00;99732.59;1777212;80;27370;-65
2024/04/05 01:03:16;;;;;;;16.50;11.40;;;;;;;10.21;100.00;99739.57;1777084;80;25374;-65
2024/04/05 01:05:49;;;;;;;81.17;75.50;;;;;;;10.22;100.00;99738.47;1777180;80;25393;-65
2024/04/05 01:08:17;;;;;;;21.20;15.63;;;;;;;10.18;100.00;99733.47;1777204;80;25527;-64
2024/04/05 01:10:44;;;;;;;85.50;79.12;;;;;;;10.22;100.00;99734.41;1777230;80;25457;-64
2024/04/05 01:13:13;;;;;;;83.17;77.35;;;;;;;10.22;100.00;99729.01;1777234;80;27406;-64
2024/04/05 01:15:41;;;;;;;80.80;75.10;;;;;;;10.23;100.00;99723.84;1777086;80;25402;-64
2024/04/05 01:18:10;;;;;;;82.35;76.55;;;;;;;10.25;100.00;99727.02;1777134;80;25530;-64
2024/04/05 01:20:38;;;;;;;;;;;;;;;10.27;100.00;99737.52;1779814;80;25485;-64
2024/04/05 01:23:11;;;;;;;80.87;75.37;;;;;;;10.28;100.00;99733.14;1777236;80;25413;-64
2024/04/05 01:25:37;;;;;;;83.40;77.60;;;;;;;10.28;100.00;99733.14;1777248;80;27279;-64
2024/04/05 01:28:14;;;;;;;80.05;74.10;;;;;;;10.37;100.00;99748.02;1777094;80;25857;-64
2024/04/05 01:30:40;;;;;;;79.03;73.33;;;;;;;10.37;100.00;99748.02;1777228;80;25565;-64
2024/04/05 01:33:07;;;;;;;78.85;73.30;;;;;;;10.32;100.00;99736.03;1777124;80;25614;-64
2024/04/05 01:35:34;;;;;;;79.62;74.20;;;;;;;10.33;100.00;99744.36;1777176;80;25436;-64
2024/04/05 01:38:01;;;;;;;77.82;72.22;;;;;;;10.34;100.00;99739.20;1777148;80;27329;-64
2024/04/05 01:40:27;;;;;;;78.25;72.85;;;;;;;10.34;100.00;99738.41;1777074;80;25456;-65
2024/04/05 01:42:54;;;;;;;79.35;73.90;;;;;;;10.35;100.00;99738.09;1777168;80;25534;-65
2024/04/05 01:45:21;;;;;;;83.07;77.03;;;;;;;10.36;100.00;99741.02;1777112;80;25471;-65
2024/04/05 01:47:48;;;;;;;79.27;73.78;;;;;;;10.34;100.00;99737.84;1777199;80;25453;-65
2024/04/05 01:50:16;;;;;;;80.55;74.97;;;;;;;10.36;100.00;99740.23;1777118;80;27328;-65
2024/04/05 01:52:43;;;;;;;77.27;72.00;;;;;;;10.36;100.00;99745.64;1777316;80;25358;-65
2024/04/05 01:55:09;;;;;;;77.47;72.03;;;;;;;10.37;100.00;99745.86;1777108;80;25587;-65
2024/04/05 01:57:38;;;;;;;78.20;72.78;;;;;;;10.36;100.00;99738.88;1777063;80;25546;-65
2024/04/05 02:00:06;;;;;;;80.10;74.47;;;;;;;10.36;100.00;99740.23;1777174;80;25395;-65
2024/04/05 02:02:33;;;;;;;80.37;74.90;;;;;;;10.36;100.00;99746.99;1777397;80;27990;-63
2024/04/05 02:05:00;;;;;;;78.12;72.67;;;;;;;10.35;100.00;99750.27;1777072;80;25641;-65
2024/04/05 02:07:28;;;;;;;80.80;75.12;;;;;;;10.36;100.00;99757.23;1777115;80;25671;-65
2024/04/05 02:09:54;;;;;;;79.25;73.62;;;;;;;10.36;100.00;99756.45;1777111;80;25569;-64
2024/04/05 02:12:23;;;;;;;78.83;73.37;;;;;;;10.35;100.00;99753.50;1777184;80;25540;-65
2024/04/05 02:14:51;;;;;;;81.82;76.02;;;;;;;10.35;100.00;99761.61;1777259;80;27325;-65
2024/04/05 02:17:18;;;;;;;77.87;72.25;;;;;;;10.35;100.00;99761.61;1777717;80;25417;-65
2024/04/05 02:19:45;;;;;;;78.22;72.50;;;;;;;10.35;100.00;99762.96;1780165;80;25397;-65
2024/04/05 02:22:12;;;;;;;79.80;74.25;;;;;;;10.34;100.00;99766.23;1780128;80;25914;-66
2024/04/05 02:24:40;;;;;;;83.47;77.47;;;;;;;10.34;100.00;99770.28;1780202;80;25567;-66
2024/04/05 02:27:07;;;;;;;79.62;74.12;;;;;;;10.34;100.00;99776.27;1780173;80;27353;-66
2024/04/05 02:29:36;;;;;;;79.82;74.32;;;;;;;10.34;100.00;99777.05;1780144;80;25648;-66
2024/04/05 02:32:04;;;;;;;75.32;70.30;;;;;;;10.36;100.00;99784.27;1780271;80;25663;-66
2024/04/05 02:34:30;;;;;;;76.57;71.20;;;;;;;10.36;100.00;99784.84;1780086;80;25567;-65
2024/04/05 02:36:56;;;;;;;74.12;68.92;;;;;;;10.36;100.00;99785.63;1780156;80;25575;-65
2024/04/05 02:39:23;;;;;;;74.07;69.05;;;;;;;10.34;100.00;99777.05;1780161;80;27385;-64
2024/04/05 02:41:49;;;;;;;74.47;69.37;;;;;;;10.36;100.00;99787.54;1780062;80;25384;-64
2024/04/05 02:44:17;;;;;;;71.97;67.27;;;;;;;10.36;100.00;99782.13;1780214;80;25630;-64
2024/04/05 02:46:43;;;;;;;73.67;68.90;;;;;;;10.37;100.00;99789.11;1780080;80;25389;-65
2024/04/05 02:49:11;;;;;;;72.65;67.97;;;;;;;10.35;100.00;99786.75;1780178;80;25473;-65
2024/04/05 02:51:38;;;;;;;75.57;70.60;;;;;;;10.35;100.00;99786.75;1780293;80;27318;-65
2024/04/05 02:54:06;;;;;;;71.77;67.25;;;;;;;10.34;100.00;99780.31;1780020;80;25566;-64
2024/04/05 02:56:35;;;;;;;73.65;69.03;;;;;;;10.32;100.00;99788.74;1780135;80;25540;-65
2024/04/05 02:59:01;;;;;;;72.40;67.55;;;;;;;10.33;100.00;99793.58;1780226;80;25429;-65
2024/04/05 03:01:28;;;;;;;71.50;67.10;;;;;;;10.32;100.00;99790.09;1780258;80;25382;-65
2024/04/05 03:03:54;;;;;;;72.82;68.07;;;;;;;10.31;100.00;99787.67;1780148;80;27344;-65
2024/04/05 03:06:20;;;;;;;69.72;65.32;;;;;;;10.29;100.00;99794.75;1780065;80;25631;-65
2024/04/05 03:08:48;;;;;;;70.90;66.50;;;;;;;10.28;100.00;99796.66;1780084;80;25663;-65
2024/04/05 03:11:15;;;;;;;74.37;69.72;;;;;;;10.26;100.00;99793.46;1780076;80;25388;-66
2024/04/05 03:13:42;;;;;;;72.53;67.72;;;;;;;10.26;100.00;99794.03;1780211;80;25421;-65
2024/04/05 03:16:09;;;;;;;71.05;66.45;;;;;;;10.25;100.00;99795.95;1780143;80;27361;-66
2024/04/05 03:18:35;;;;;;;70.42;66.10;;;;;;;10.24;100.00;99800.31;1779859;80;25396;-66
2024/04/05 03:21:02;;;;;;;73.80;69.17;;;;;;;10.23;100.00;99800.88;1780092;80;25453;-66
2024/04/05 03:23:29;;;;;;;72.85;68.20;;;;;;;10.22;100.00;99807.39;1780109;80;25439;-66
2024/04/05 03:25:55;;;;;;;70.15;65.80;;;;;;;10.21;100.00;99808.48;1780142;80;25434;-66
2024/04/05 03:28:21;;;;;;;70.08;65.50;;;;;;;10.21;100.00;99809.05;1780218;80;27382;-67
2024/04/05 03:30:47;;;;;;;72.72;68.28;;;;;;;10.21;100.00;99813.11;1780144;80;25371;-67
2024/04/05 03:33:13;;;;;;;73.05;68.05;;;;;;;10.19;100.00;99818.83;1780206;80;25465;-68
2024/04/05 03:35:40;;;;;;;71.37;67.00;;;;;;;10.20;100.00;99825.02;1780145;80;25639;-69
2024/04/05 03:38:07;;;;;;;71.82;67.53;;;;;;;10.19;100.00;99828.29;1780158;80;25589;-68
2024/04/05 03:40:39;;;;;;;70.92;66.00;;;;;;;10.18;100.00;99831.30;1780144;80;27362;-67
2024/04/05 03:43:08;;;;;;;71.07;66.40;;;;;;;10.19;100.00;99837.75;1780077;80;25614;-66
2024/04/05 03:45:34;;;;;;;70.15;65.85;;;;;;;10.17;100.00;99839.19;1780258;80;25542;-66
2024/04/05 03:48:01;;;;;;;69.97;65.52;;;;;;;10.14;100.00;99841.95;1780043;80;25554;-67
2024/04/05 03:50:28;;;;;;;70.03;65.78;;;;;;;10.14;100.00;99854.12;1780150;80;25567;-67
2024/04/05 03:52:56;;;;;;;71.42;67.00;;;;;;;10.13;100.00;99853.89;1780126;80;27337;-67
2024/04/05 03:55:23;;;;;;;71.15;66.17;;;;;;;10.13;100.00;99859.84;1780006;80;25369;-67
2024/04/05 03:57:52;;;;;;;71.53;67.03;;;;;;;10.12;100.00;99861.75;1780110;80;25503;-68
2024/04/05 04:00:23;;;;;;;72.90;68.35;;;;;;;10.10;100.00;99863.42;1780044;80;27477;-67
2024/04/05 04:02:53;;;;;;;70.22;65.95;;;;;;;10.09;100.00;99865.87;1780182;80;25566;-67
2024/04/05 04:05:19;;;;;;;70.72;66.42;;;;;;;10.07;100.00;99865.39;1780324;80;27306;-67
2024/04/05 04:07:47;;;;;;;72.08;67.58;;;;;;;10.05;100.00;99874.38;1780141;80;25534;-67
2024/04/05 04:10:15;;;;;;;71.40;66.90;;;;;;;10.02;100.00;99872.30;1780252;80;25615;-67
2024/04/05 04:12:41;;;;;;;73.00;68.42;;;;;;;10.02;100.00;99878.27;1780267;80;25428;-67
2024/04/05 04:15:11;;;;;;;69.03;64.82;;;;;;;9.99;100.00;99874.84;1780259;80;25613;-67
2024/04/05 04:17:36;;;;;;;70.35;65.95;;;;;;;9.97;100.00;99876.50;1780159;80;27345;-67
2024/04/05 04:20:06;;;;;;;69.90;65.65;;;;;;;9.96;100.00;99879.52;1780245;80;25374;-67
2024/04/05 04:22:34;;;;;;;;;;;;;;;9.94;100.00;99883.88;1782902;80;25563;-67
2024/04/05 04:25:01;;;;;;;49.15;46.13;;;;;;;9.94;100.00;99888.50;1780387;80;25605;-67
2024/04/05 04:27:27;;;;;;;71.28;66.85;;;;;;;9.89;100.00;99891.59;1780243;80;25527;-67
2024/04/05 04:29:54;;;;;;;72.05;67.37;;;;;;;9.88;100.00;99889.99;1780279;80;27387;-67
2024/04/05 04:32:25;;;;;;;72.35;67.87;;;;;;;9.86;100.00;99900.89;1780136;80;25593;-67
2024/04/05 04:34:51;;;;;;;71.33;66.92;;;;;;;9.85;100.00;99896.58;1780198;80;25582;-68
2024/04/05 04:37:21;;;;;;;71.75;67.37;;;;;;;9.84;100.00;99896.33;1780201;80;25531;-68
2024/04/05 04:39:47;;;;;;;71.75;67.22;;;;;;;9.83;100.00;99906.34;1780370;80;25586;-68
2024/04/05 04:42:14;;;;;;;72.35;67.75;;;;;;;9.83;100.00;99910.96;1780170;80;29502;-67
2024/04/05 04:44:40;;;;;;;74.45;69.75;;;;;;;9.82;100.00;99922.30;1780156;80;25611;-67
2024/04/05 04:47:06;;;;;;;75.00;70.25;;;;;;;9.81;100.00;99918.03;1780214;80;25578;-67
2024/04/05 04:49:35;;;;;;;74.87;70.08;;;;;;;9.79;100.00;99920.78;1780151;80;25553;-67
2024/04/05 04:52:02;;;;;;;72.27;67.78;;;;;;;9.79;100.00;99924.83;1780163;80;25378;-67
2024/04/05 04:54:29;;;;;;;72.72;68.22;;;;;;;9.77;100.00;99927.84;1780230;80;27369;-68
2024/04/05 04:56:55;;;;;;;73.85;69.25;;;;;;;9.76;100.00;99933.58;1780117;80;25849;-67
2024/04/05 04:59:28;;;;;;;74.12;69.00;;;;;;;9.73;100.00;99943.09;1780193;80;25366;-67
2024/04/05 05:01:50;;;;;;;74.58;69.77;;;;;;;9.73;100.00;99933.64;1779141;80;25504;-68
2024/04/05 05:04:19;;;;;;;75.90;70.90;;;;;;;9.72;100.00;99942.84;1779476;80;25697;-68
2024/04/05 05:06:45;;;;;;;74.53;69.70;;;;;;;9.71;100.00;99954.20;1779626;80;27305;-68
2024/04/05 05:09:15;;;;;;;72.45;67.90;;;;;;;9.71;100.00;99957.47;1780138;80;25606;-68
2024/04/05 05:11:40;;;;;;;74.40;69.47;;;;;;;9.70;100.00;99953.16;1779987;80;25489;-68
2024/04/05 05:14:07;;;;;;;74.55;69.37;;;;;;;9.69;100.00;99965.09;1780163;80;25396;-69
2024/04/05 05:16:34;;;;;;;78.17;73.17;;;;;;;9.67;100.00;99961.88;1780241;80;25435;-67
2024/04/05 05:19:00;;;;;;;75.62;70.57;;;;;;;9.65;100.00;99966.27;1778739;80;27274;-68
2024/04/05 05:21:26;;;;;;;72.75;68.02;;;;;;;9.64;100.00;99971.41;1777048;80;25559;-68
2024/04/05 05:23:52;;;;;;;71.92;67.45;;;;;;;9.63;100.00;99969.81;1777153;80;25461;-68
2024/04/05 05:26:18;;;;;;;72.60;67.90;;;;;;;9.62;100.00;99966.88;1777154;80;25637;-69
2024/04/05 05:28:45;;;;;;;72.92;68.22;;;;;;;9.61;100.00;99971.23;1777271;80;25607;-69
2024/04/05 05:31:11;;;;;;;75.15;70.25;;;;;;;9.60;100.00;99969.07;1777255;80;27901;-68
2024/04/05 05:33:39;;;;;;;77.70;72.80;;;;;;;9.62;100.00;99978.22;1777065;80;25630;-66
2024/04/05 05:36:05;;;;;;;77.80;73.07;;;;;;;9.63;100.00;99973.86;1777144;80;25532;-66
2024/04/05 05:38:32;;;;;;;80.57;75.10;;;;;;;9.66;100.00;99976.51;1777185;80;25665;-67
2024/04/05 05:40:58;;;;;;;75.22;70.50;;;;;;;9.67;100.00;99980.25;1777243;80;25613;-67
2024/04/05 05:46:00;;;;;;;78.42;73.55;;;;;;;9.71;100.00;99981.77;1811661;76;26880;-67
2024/04/05 05:48:26;;;;;;;74.40;69.58;;;;;;;9.77;100.00;99987.83;1828853;78;25670;-67
2024/04/05 05:50:52;;;;;;;74.97;70.17;;;;;;;9.82;100.00;99991.18;1829032;78;25690;-68
2024/04/05 05:53:19;;;;;;;72.42;67.87;;;;;;;9.90;100.00;99995.83;1829166;78;25744;-68
2024/04/05 05:55:52;;;;;;;75.67;70.78;;;;;;;9.99;100.00;99999.13;1829088;78;27305;-68
2024/04/05 05:58:18;;;;;;;74.85;70.05;;;;;;;10.07;100.00;100005.91;1829294;78;25549;-67
2024/04/05 06:00:45;;;;;;;74.10;69.20;;;;;;;10.18;100.00;100001.58;1830100;78;25604;-66
2024/04/05 06:03:13;;;;;;;75.03;70.08;;;;;;;10.26;100.00;100004.30;1830639;78;25431;-68
2024/04/05 06:05:39;;;;;;;73.12;68.37;;;;;;;10.37;100.00;100010.27;1830807;78;25407;-68
2024/04/05 06:08:07;;;;;;;69.72;65.25;;;;;;;10.46;100.00;100019.19;1830633;78;27365;-67
2024/04/05 06:10:34;;;;;;;74.43;69.53;;;;;;;10.52;100.00;100029.31;1830857;78;25162;-67
2024/04/05 06:13:01;;;;;;;73.78;68.85;;;;;;;10.59;100.00;100034.23;1830672;78;25369;-68
2024/04/05 06:15:28;;;;;;;74.27;69.30;;;;;;;10.58;100.00;100032.66;1830612;78;25343;-66
2024/04/05 06:17:54;;;;;;;71.53;66.92;;;;;;;10.64;100.00;100034.91;1830642;78;25588;-68
2024/04/05 06:20:21;;;;;;;74.10;69.45;;;;;;;10.72;100.00;100036.02;1830680;78;27904;-69
2024/04/05 06:22:47;;;;;;;71.47;66.90;;;;;;;10.78;100.00;100041.53;1830543;78;25588;-67
2024/04/05 06:25:14;;;;;;;73.30;68.57;;;;;;;10.82;100.00;100051.16;1830676;78;25601;-67
2024/04/05 06:27:41;;;;;;;71.87;67.37;;;;;;;10.80;100.00;100058.23;1830637;78;25973;-67
2024/04/05 06:30:10;;;;;;;69.45;65.22;;;;;;;10.79;100.00;100059.34;1830653;78;25491;-66
2024/04/05 06:32:37;;;;;;;50.07;47.03;;;;;;;10.79;100.00;100060.69;1830924;78;27359;-67
2024/04/05 06:35:05;;;;;;;74.05;69.37;;;;;;;10.79;100.00;100063.95;1830535;78;25557;-67
2024/04/05 06:37:33;;;;;;;72.90;68.07;;;;;;;10.78;100.00;100071.85;1830635;78;25566;-66
2024/04/05 06:40:01;;;;;;;75.62;70.62;;;;;;;10.76;100.00;100065.94;1830624;78;25509;-66
2024/04/05 06:42:27;;;;;;;72.82;68.12;;;;;;;10.77;100.00;100062.92;1830694;78;25371;-65
2024/04/05 06:44:53;;;;;;;74.85;70.20;;;;;;;10.82;100.00;100066.03;1830635;78;27307;-66
2024/04/05 06:47:21;;;;;;;73.20;68.35;;;;;;;10.90;100.00;100067.17;1829986;78;25374;-66
2024/04/05 06:49:47;;;;;;;75.57;70.80;;;;;;;10.97;100.00;100073.70;1830600;78;25356;-67
2024/04/05 06:52:14;;;;;;;74.25;69.58;;;;;;;10.96;100.00;100074.02;1830618;78;26003;-68
2024/04/05 06:54:43;;;;;;;75.32;70.55;;;;;;;10.95;100.00;100086.75;1830653;78;25599;-69
2024/04/05 06:57:10;;;;;;;73.05;68.55;;;;;;;10.97;100.00;100094.00;1830786;78;27281;-66
2024/04/05 06:59:38;;;;;;;74.20;69.30;;;;;;;10.97;100.00;100090.50;1830551;78;25633;-66
2024/04/05 07:02:06;;;;;;;72.27;67.42;;;;;;;10.95;100.00;100090.81;1830658;78;25600;-71
2024/04/05 07:04:33;;;;;;;75.87;71.00;;;;;;;10.96;100.00;100092.39;1830610;78;25540;-68
2024/04/05 07:07:00;;;;;;;74.07;69.55;;;;;;;10.99;100.00;100092.33;1830683;78;25363;-67
2024/04/05 07:09:29;;;;;;;75.62;70.90;;;;;;;11.00;100.00;100098.78;1830627;78;27355;-67
2024/04/05 07:12:04;;;;;;;73.57;68.97;;;;;;;11.03;100.00;100102.22;1830670;78;25661;-67
2024/04/05 07:14:24;;;;;;;75.05;70.25;;;;;;;11.03;100.00;100114.93;1828278;78;25352;-66
2024/04/05 07:16:50;;;;;;;74.40;69.72;;;;;;;11.02;100.00;100103.88;1830707;78;25863;-67
2024/04/05 07:19:17;;;;;;;74.80;70.17;;;;;;;11.14;100.00;100105.97;1830680;78;25438;-68
2024/04/05 07:21:48;;;;;;;72.37;67.72;;;;;;;11.24;100.00;100108.90;1830702;78;27307;-66
2024/04/05 07:24:16;;;;;;;70.95;66.47;;;;;;;11.31;100.00;100112.74;1830531;78;25426;-67
2024/04/05 07:26:43;;;;;;;73.52;68.83;;;;;;;11.40;100.00;100108.67;1830801;78;25408;-68
2024/04/05 07:29:10;;;;;;;75.00;70.25;;;;;;;11.55;100.00;100113.61;1830638;78;25953;-65
2024/04/05 07:31:37;;;;;;;73.85;69.07;;;;;;;11.84;100.00;100121.63;1830639;78;25389;-67
2024/04/05 07:34:05;;;;;;;72.42;68.02;;;;;;;11.92;100.00;100128.98;1830627;78;27347;-67
2024/04/05 07:36:32;;;;;;;74.20;69.60;;;;;;;12.15;100.00;100136.91;1829970;78;25398;-67
2024/04/05 07:38:59;;;;;;;72.70;68.30;;;;;;;12.41;100.00;100135.48;1829818;78;25585;-66
2024/04/05 07:41:29;;;;;;;73.12;68.65;;;;;;;12.71;100.00;100142.28;1829506;78;25664;-68
2024/04/05 07:43:55;;;;;;;75.35;70.52;;;;;;;12.74;100.00;100150.34;1829582;78;25800;-67
2024/04/05 07:46:21;;;;;;;74.80;69.95;;;;;;;12.79;98.58;100146.88;1827746;78;27329;-67
2024/04/05 07:48:50;;;;;;;73.22;68.62;;;;;;;12.83;98.11;100153.80;1819405;78;25590;-67
2024/04/05 07:51:16;;;;;;;74.10;69.60;;;;;;;12.96;99.40;100154.14;1819594;78;29769;-67
2024/04/05 07:53:47;;;;;;;78.33;73.25;;;;;;;13.02;96.69;100155.52;1819474;78;25395;-68
2024/04/05 07:56:14;;;;;;;76.45;71.53;;;;;;;13.04;95.98;100160.08;1819503;78;25510;-68
2024/04/05 07:58:40;;;;;;;75.47;70.32;;;;;;;13.12;97.61;100161.71;1819510;78;27805;-69
2024/04/05 08:01:07;;;;;;;74.30;69.60;;;;;;;13.21;99.04;100165.16;1819394;78;25592;-69
2024/04/05 08:03:34;;;;;;;73.95;69.42;;;;;;;13.25;94.00;100175.61;1819488;78;25360;-68
2024/04/05 08:06:01;;;;;;;72.85;68.35;;;;;;;13.40;93.57;100164.73;1819357;78;25588;-69
2024/04/05 08:08:28;;;;;;;72.40;67.97;;;;;;;13.60;91.63;100175.38;1819505;78;25578;-69
2024/04/05 08:11:03;;;;;;;73.45;68.97;;;;;;;13.70;92.45;100174.97;1819477;78;28040;-69
2024/04/05 08:13:30;;;;;;;73.37;68.97;;;;;;;13.90;95.03;100172.58;1818994;78;25689;-69
2024/04/05 08:15:56;;;;;;;72.32;67.67;;;;;;;14.04;91.77;100172.28;1819404;78;25601;-68
2024/04/05 08:18:23;;;;;;;72.45;67.65;;;;;;;14.05;88.95;100179.33;1819417;78;25598;-68
2024/04/05 08:20:49;;;;;;;73.52;69.00;;;;;;;14.13;88.45;100177.06;1819494;78;25353;-68
2024/04/05 08:23:16;;;;;;;73.05;67.80;;;;;;;14.22;88.64;100181.05;1819420;78;28038;-68
2024/04/05 08:25:42;;;;;;;72.55;68.25;;;;;;;14.31;88.10;100186.63;1819333;78;25366;-69
2024/04/05 08:28:08;;;;;;;74.67;69.87;;;;;;;14.34;87.67;100183.25;1819432;78;25578;-68
2024/04/05 08:30:35;;;;;;;69.35;65.12;;;;;;;14.48;89.11;100187.02;1819403;78;25605;-68
2024/04/05 08:33:04;;;;;;;73.72;69.30;;;;;;;14.64;86.15;100195.91;1819407;78;25530;-69
2024/04/05 08:35:30;;;;;;;73.37;68.70;;;;;;;14.73;87.30;100198.76;1819531;78;27289;-69
2024/04/05 08:38:03;;;;;;;73.22;68.83;;;;;;;14.77;85.74;100202.17;1819376;78;25925;-70
2024/04/05 08:40:29;;;;;;;72.45;67.95;;;;;;;14.86;85.52;100209.08;1819456;78;25420;-71
2024/04/05 08:43:00;;;;;;;74.58;69.80;;;;;;;14.87;84.83;100204.45;1819369;78;25668;-66
2024/04/05 08:45:31;;;;;;;77.82;72.72;;;;;;;14.94;85.50;100205.45;1819453;78;25519;-65
2024/04/05 08:48:04;;;;;;;79.15;74.00;;;;;;;14.97;83.48;100209.44;1827980;78;27320;-66
2024/04/05 08:50:34;;;;;;;75.92;71.17;;;;;;;15.14;80.97;100213.86;1830659;78;25587;-74
2024/04/05 08:53:01;;;;;;;73.25;68.75;;;;;;;15.22;81.31;100218.95;1830732;78;25180;-70
2024/04/05 08:55:28;;;;;;;72.50;68.10;;;;;;;15.32;81.75;100219.84;1830630;78;26124;-70
2024/04/05 08:58:01;;;;;;;72.62;68.37;;;;;;;15.51;82.37;100213.82;1830783;78;25422;-70
2024/04/05 09:00:28;;;;;;;72.20;67.60;;;;;;;15.63;79.81;100213.78;1830732;78;27850;-72
2024/04/05 09:03:00;;;;;;;72.22;67.95;;;;;;;15.72;79.98;100221.83;1830631;78;25419;-73
2024/04/05 09:05:27;;;;;;;72.92;68.45;;;;;;;15.76;80.99;100221.95;1830751;78;25415;-73
2024/04/05 09:08:06;;;;;;;70.45;66.30;;;;;;;15.92;80.38;100216.55;1830661;78;25612;-71
2024/04/05 09:10:33;;;;;;;76.10;71.35;;;;;;;16.05;80.29;100222.19;1830424;78;25443;-69
2024/04/05 09:12:59;;;;;;;72.32;67.95;;;;;;;16.04;76.49;100220.62;1830702;78;27305;-70
2024/04/05 09:15:26;;;;;;;71.85;67.10;;;;;;;16.00;77.01;100228.67;1830630;78;25359;-71
2024/04/05 09:17:54;;;;;;;70.78;66.57;;;;;;;15.98;76.57;100239.15;1830756;78;25440;-70
2024/04/05 09:20:29;;;;;;;73.92;69.22;;;;;;;16.03;75.57;100240.27;1830716;78;26256;-74
2024/04/05 09:23:08;;;;;;;70.40;66.30;;;;;;;16.04;73.66;100232.31;1830756;78;25567;-70
2024/04/05 09:25:38;;;;;;;73.05;68.70;;;;;;;15.96;74.40;100241.44;1830833;78;29483;-69
2024/04/05 09:28:12;;;;;;;70.83;66.50;;;;;;;15.90;73.68;100235.98;1830515;78;33111;-66
2024/04/05 09:30:38;;;;;;;74.95;70.35;;;;;;;15.86;74.65;100237.83;1830272;78;25542;-67
2024/04/05 09:33:05;;;;;;;73.95;69.65;;;;;;;15.81;73.92;100239.44;1830674;78;25589;-68
2024/04/05 09:35:37;;;;;;;70.90;66.60;;;;;;;15.68;73.21;100242.72;1830688;78;25630;-68
2024/04/05 09:38:07;;;;;;;71.50;66.97;;;;;;;15.54;72.53;100239.58;1830745;78;26617;-67
2024/04/05 09:40:35;;;;;;;68.70;64.55;;;;;;;15.41;71.65;100239.61;1830742;78;25638;-68
2024/04/05 09:43:04;;;;;;;69.40;65.40;;;;;;;15.31;72.57;100244.16;1830784;78;25604;-71
2024/04/05 09:45:38;;;;;;;69.35;65.20;;;;;;;15.27;73.64;100245.97;1830720;78;25713;-73
2024/04/05 09:48:08;;;;;;;71.70;67.30;;;;;;;15.27;72.24;100243.23;1827271;78;25432;-65
2024/04/05 09:50:37;;;;;;;90.85;83.65;;;;;;;15.20;73.07;100239.72;1825449;78;27448;-65
2024/04/05 09:53:04;;;;;;;78.60;73.22;;;;;;;15.21;73.39;100241.90;1764924;81;25724;-66
2024/04/05 09:55:36;;;;;;;69.90;65.78;;;;;;;15.25;74.37;100246.30;1797991;79;25528;-65
2024/04/05 09:58:05;;;;;;;71.77;67.37;;;;;;;15.31;73.86;100245.52;1798033;79;28726;-78
2024/04/05 10:00:32;;;;;;;;;;;;;;;15.33;73.33;100250.64;1799304;79;25437;-76
2024/04/05 10:03:00;;;;;;;70.83;66.72;;;;;;;15.42;73.39;100252.08;1796525;79;27477;-74
2024/04/05 10:05:29;;;;;;;74.00;69.35;;;;;;;15.46;72.85;100246.73;1783679;80;25757;-74
2024/04/05 10:07:56;;;;;;;72.40;68.10;;;;;;;15.45;72.24;100253.34;1798572;79;25409;-73
2024/04/05 10:10:35;;;;;;;69.92;65.72;;;;;;;15.36;71.18;100249.92;1796623;79;25671;-74
2024/04/05 10:13:20;;;;;;;69.45;65.17;;;;;;;15.23;70.37;100257.33;1783739;80;25559;-74
2024/04/05 10:15:57;;;;;;;71.57;67.17;;;;;;;15.07;70.91;100249.05;1797377;79;27971;-75
2024/04/05 10:18:46;;;;;;;68.55;64.32;;;;;;;15.10;70.45;100265.52;1796491;79;25759;-73
2024/04/05 10:21:12;;;;;;;71.40;66.97;;;;;;;15.11;71.10;100256.77;1783795;80;25574;-73
2024/04/05 10:23:43;;;;;;;70.00;65.90;;;;;;;15.17;72.61;100256.77;1798167;79;25804;-72
2024/04/05 10:26:13;;;;;;;70.45;66.25;;;;;;;15.23;71.18;100258.12;1798024;79;25463;-73
2024/04/05 10:28:41;;;;;;;70.97;66.57;;;;;;;15.23;71.10;100255.39;1796409;79;27906;-74
2024/04/05 10:31:10;;;;;;;70.87;66.22;;;;;;;15.37;72.35;100250.95;1783478;80;25637;-74
2024/04/05 10:33:40;;;;;;;70.40;66.25;;;;;;;15.47;70.22;100260.03;1798227;79;25402;-73
2024/04/05 10:36:08;;;;;;;72.80;68.40;;;;;;;15.45;70.63;100258.80;1796298;79;25758;-73
2024/04/05 10:38:35;;;;;;;68.40;64.20;;;;;;;15.30;68.46;100273.32;1783540;80;25522;-71
2024/04/05 10:41:04;;;;;;;71.10;66.65;;;;;;;15.12;69.25;100269.27;1798006;79;27290;-72
2024/04/05 10:43:32;;;;;;;68.62;64.55;;;;;;;14.99;69.58;100263.58;1796530;79;25568;-76
2024/04/05 10:45:59;;;;;;;77.37;71.67;;;;;;;14.84;69.66;100265.02;1783583;80;25602;-70
2024/04/05 10:48:26;;;;;;;81.65;75.87;;;;;;;14.75;70.45;100259.68;1828821;78;25791;-71
2024/04/05 10:50:54;;;;;;;75.52;70.80;;;;;;;14.81;72.28;100254.80;1830823;78;25358;-76
2024/04/05 10:53:33;;;;;;;72.32;67.27;;;;;;;15.15;73.18;100266.41;1833175;78;27338;-80
2024/04/05 10:56:08;;;;;;;70.40;65.90;;;;;;;15.56;71.06;100270.02;1808610;78;25263;-80
2024/04/05 10:58:48;;;;;;;67.27;63.08;;;;;;;16.14;70.41;100258.86;1833902;78;25216;-80
2024/04/05 11:01:22;;;;;;;67.37;63.20;;;;;;;16.96;72.28;100256.96;1833622;78;25566;-81
2024/04/05 11:03:58;;;;;;;68.67;64.58;;;;;;;17.99;69.70;100261.03;1834124;78;25693;-81
2024/04/05 11:06:32;;;;;;;68.95;64.72;;;;;;;18.58;64.46;100270.58;1834045;78;27323;-86
2024/04/05 11:09:02;;;;;;;66.25;62.35;;;;;;;18.98;61.68;100274.80;1807559;78;25334;-84
2024/04/05 11:11:30;;;;;;;67.60;63.33;;;;;;;19.18;59.90;100272.19;1782225;78;25234;-82
2024/04/05 11:14:03;;;;;;;66.95;63.15;;;;;;;19.34;61.62;100265.20;1833137;78;25599;-81
2024/04/05 11:16:35;;;;;;;69.60;65.52;;;;;;;19.68;60.31;100268.59;1833234;78;25229;-84